createdAt,value
2022-08-22T00:00:03.354Z,17.08
2022-08-22T00:01:03.485Z,17.07
2022-08-22T00:02:03.653Z,17.05
2022-08-22T00:02:54.939Z,18.32
2022-08-22T00:03:03.566Z,20.13
2022-08-22T00:03:03.866Z,20.32
2022-08-22T00:04:04.954Z,17.02
2022-08-22T00:05:03.924Z,17.01
2022-08-22T00:06:04.081Z,17.00
2022-08-22T00:07:04.234Z,17.00
2022-08-22T00:08:04.338Z,16.99
2022-08-22T00:09:04.613Z,16.97
2022-08-22T00:10:04.696Z,16.96
2022-08-22T00:11:04.715Z,16.94
2022-08-22T00:12:04.812Z,16.93
2022-08-22T00:13:04.912Z,16.92
2022-08-22T00:14:05.211Z,16.92
2022-08-22T00:15:05.224Z,16.91
2022-08-22T00:16:05.252Z,16.91
2022-08-22T00:17:05.361Z,16.89
2022-08-22T00:18:05.611Z,16.88
2022-08-22T00:19:05.732Z,16.87
2022-08-22T00:20:05.722Z,16.84
2022-08-22T00:21:05.819Z,16.82
2022-08-22T00:22:05.932Z,16.80
2022-08-22T00:23:06.053Z,16.78
2022-08-22T00:24:06.310Z,16.76
2022-08-22T00:25:06.390Z,16.74
2022-08-22T00:26:07.390Z,16.71
2022-08-22T00:27:06.481Z,16.68
2022-08-22T00:28:06.589Z,16.66
2022-08-22T00:29:06.820Z,16.65
2022-08-22T00:30:07.546Z,16.63
2022-08-22T00:31:06.939Z,16.61
2022-08-22T00:32:07.037Z,16.59
2022-08-22T00:33:07.139Z,16.56
2022-08-22T00:34:08.288Z,16.55
2022-08-22T00:35:07.444Z,16.53
2022-08-22T00:36:07.569Z,16.51
2022-08-22T00:37:07.718Z,16.49
2022-08-22T00:38:07.778Z,16.48
2022-08-22T00:39:08.019Z,16.46
2022-08-22T00:40:08.181Z,16.45
2022-08-22T00:41:08.177Z,16.44
2022-08-22T00:42:08.269Z,16.42
2022-08-22T00:43:08.527Z,16.40
2022-08-22T00:44:08.516Z,16.38
2022-08-22T00:45:08.676Z,16.37
2022-08-22T00:46:08.766Z,16.35
2022-08-22T00:47:08.874Z,16.33
2022-08-22T00:48:09.236Z,16.31
2022-08-22T00:49:10.244Z,16.30
2022-08-22T00:50:09.221Z,16.27
2022-08-22T00:51:09.376Z,16.25
2022-08-22T00:52:09.486Z,16.23
2022-08-22T00:53:09.586Z,16.22
2022-08-22T00:54:16.858Z,16.21
2022-08-22T00:55:10.816Z,16.20
2022-08-22T00:56:09.955Z,16.19
2022-08-22T00:57:10.109Z,16.18
2022-08-22T00:58:10.204Z,16.15
2022-08-22T00:59:23.283Z,16.13
2022-08-22T01:00:11.564Z,16.10
2022-08-22T01:01:10.607Z,16.07
2022-08-22T01:02:10.684Z,16.06
2022-08-22T01:03:10.829Z,16.06
2022-08-22T01:04:11.004Z,16.06
2022-08-22T01:05:11.141Z,16.04
2022-08-22T01:06:11.235Z,16.03
2022-08-22T01:07:11.353Z,16.00
2022-08-22T01:08:11.463Z,15.98
2022-08-22T01:09:11.664Z,15.96
2022-08-22T01:10:11.742Z,15.95
2022-08-22T01:11:11.833Z,15.93
2022-08-22T01:12:12.081Z,15.91
2022-08-22T01:13:12.061Z,15.89
2022-08-22T01:14:12.207Z,15.86
2022-08-22T01:15:12.302Z,15.82
2022-08-22T01:16:12.411Z,15.79
2022-08-22T01:17:12.549Z,15.77
2022-08-22T01:18:12.639Z,15.74
2022-08-22T01:19:12.748Z,15.71
2022-08-22T01:20:12.832Z,15.70
2022-08-22T01:21:12.975Z,15.70
2022-08-22T01:22:13.108Z,15.71
2022-08-22T01:23:13.261Z,15.70
2022-08-22T01:24:13.309Z,15.69
2022-08-22T01:25:13.419Z,15.68
2022-08-22T01:26:13.525Z,15.67
2022-08-22T01:27:13.660Z,15.66
2022-08-22T01:28:13.909Z,15.65
2022-08-22T01:29:13.859Z,15.65
2022-08-22T01:30:13.976Z,15.65
2022-08-22T01:31:14.139Z,15.65
2022-08-22T01:32:14.242Z,15.64
2022-08-22T01:33:14.417Z,15.63
2022-08-22T01:34:14.468Z,15.61
2022-08-22T01:35:14.568Z,15.59
2022-08-22T01:36:14.681Z,15.58
2022-08-22T01:37:14.775Z,15.56
2022-08-22T01:38:14.977Z,15.55
2022-08-22T01:39:15.168Z,15.53
2022-08-22T01:40:15.206Z,15.52
2022-08-22T01:41:15.267Z,15.52
2022-08-22T01:42:15.381Z,15.52
2022-08-22T01:43:15.550Z,15.53
2022-08-22T01:44:15.733Z,15.54
2022-08-22T01:45:15.787Z,15.55
2022-08-22T01:46:20.684Z,15.56
2022-08-22T01:47:16.997Z,15.57
2022-08-22T01:48:16.105Z,15.57
2022-08-22T01:49:16.336Z,15.57
2022-08-22T01:50:16.463Z,15.56
2022-08-22T01:51:16.459Z,15.56
2022-08-22T01:52:19.485Z,15.54
2022-08-22T01:53:16.675Z,15.52
2022-08-22T01:54:16.833Z,15.50
2022-08-22T01:55:17.128Z,15.47
2022-08-22T01:56:17.016Z,15.46
2022-08-22T01:57:17.114Z,15.44
2022-08-22T01:58:17.234Z,15.42
2022-08-22T01:59:17.595Z,15.40
2022-08-22T02:00:17.564Z,15.39
2022-08-22T02:01:17.609Z,15.37
2022-08-22T02:02:17.672Z,15.36
2022-08-22T02:03:17.803Z,15.35
2022-08-22T02:04:18.093Z,15.34
2022-08-22T02:05:18.233Z,15.34
2022-08-22T02:06:18.241Z,15.34
2022-08-22T02:07:18.321Z,15.33
2022-08-22T02:08:18.473Z,15.33
2022-08-22T02:09:18.593Z,15.33
2022-08-22T02:10:18.821Z,15.34
2022-08-22T02:11:18.805Z,15.34
2022-08-22T02:12:21.753Z,15.35
2022-08-22T02:13:19.041Z,15.35
2022-08-22T02:14:19.233Z,15.34
2022-08-22T02:15:19.501Z,15.34
2022-08-22T02:16:19.439Z,15.34
2022-08-22T02:17:19.548Z,15.33
2022-08-22T02:18:19.662Z,15.33
2022-08-22T02:19:19.743Z,15.33
2022-08-22T02:20:20.271Z,15.33
2022-08-22T02:21:20.017Z,15.34
2022-08-22T02:22:20.149Z,15.34
2022-08-22T02:23:20.304Z,15.35
2022-08-22T02:24:20.429Z,15.36
2022-08-22T02:25:20.748Z,15.36
2022-08-22T02:26:20.682Z,15.37
2022-08-22T02:27:20.818Z,15.38
2022-08-22T02:28:20.948Z,15.39
2022-08-22T02:29:21.087Z,15.40
2022-08-22T02:30:21.548Z,15.41
2022-08-22T02:31:21.389Z,15.41
2022-08-22T02:32:21.477Z,15.43
2022-08-22T02:33:21.638Z,15.44
2022-08-22T02:34:21.750Z,15.44
2022-08-22T02:35:21.987Z,15.45
2022-08-22T02:36:22.129Z,15.45
2022-08-22T02:37:22.106Z,15.45
2022-08-22T02:38:22.246Z,15.45
2022-08-22T02:39:22.386Z,15.45
2022-08-22T02:40:22.794Z,15.45
2022-08-22T02:41:22.643Z,15.44
2022-08-22T02:42:22.847Z,15.43
2022-08-22T02:43:22.842Z,15.42
2022-08-22T02:44:22.986Z,15.41
2022-08-22T02:45:23.244Z,15.40
2022-08-22T02:46:23.181Z,15.39
2022-08-22T02:47:23.306Z,15.39
2022-08-22T02:48:23.517Z,15.39
2022-08-22T02:49:23.596Z,15.38
2022-08-22T02:50:23.708Z,15.37
2022-08-22T02:51:23.807Z,15.37
2022-08-22T02:52:23.964Z,15.37
2022-08-22T02:53:24.303Z,15.37
2022-08-22T02:54:24.185Z,15.38
2022-08-22T02:55:24.284Z,15.38
2022-08-22T02:56:24.443Z,15.38
2022-08-22T02:57:24.668Z,15.38
2022-08-22T02:58:24.651Z,15.38
2022-08-22T02:59:24.902Z,15.37
2022-08-22T03:00:30.779Z,15.37
2022-08-22T03:01:26.072Z,15.35
2022-08-22T03:02:25.214Z,15.34
2022-08-22T03:03:25.421Z,15.33
2022-08-22T03:04:25.405Z,15.32
2022-08-22T03:05:25.532Z,15.31
2022-08-22T03:06:25.671Z,15.29
2022-08-22T03:07:25.824Z,15.28
2022-08-22T03:08:26.142Z,15.27
2022-08-22T03:09:26.241Z,15.26
2022-08-22T03:10:26.171Z,15.24
2022-08-22T03:11:26.320Z,15.23
2022-08-22T03:12:26.410Z,15.22
2022-08-22T03:13:26.620Z,15.20
2022-08-22T03:14:26.720Z,15.19
2022-08-22T03:15:27.011Z,15.17
2022-08-22T03:16:26.938Z,15.15
2022-08-22T03:17:27.060Z,15.14
2022-08-22T03:18:27.320Z,15.13
2022-08-22T03:19:27.338Z,15.12
2022-08-22T03:20:27.479Z,15.11
2022-08-22T03:21:27.618Z,15.09
2022-08-22T03:22:27.749Z,15.08
2022-08-22T03:23:28.126Z,15.06
2022-08-22T03:24:27.998Z,15.04
2022-08-22T03:25:28.140Z,15.03
2022-08-22T03:26:28.319Z,15.02
2022-08-22T03:27:33.269Z,15.00
2022-08-22T03:28:29.618Z,14.98
2022-08-22T03:29:28.649Z,14.97
2022-08-22T03:30:28.787Z,14.95
2022-08-22T03:31:28.947Z,14.94
2022-08-22T03:32:29.027Z,14.93
2022-08-22T03:33:29.167Z,14.92
2022-08-22T03:34:30.816Z,14.91
2022-08-22T03:35:29.436Z,14.89
2022-08-22T03:36:29.576Z,14.88
2022-08-22T03:37:29.715Z,14.86
2022-08-22T03:38:29.867Z,14.85
2022-08-22T03:39:30.027Z,14.83
2022-08-22T03:40:31.914Z,14.82
2022-08-22T03:41:30.265Z,14.80
2022-08-22T03:42:30.414Z,14.78
2022-08-22T03:43:30.505Z,14.76
2022-08-22T03:44:30.824Z,14.75
2022-08-22T03:45:30.775Z,14.73
2022-08-22T03:46:30.924Z,14.72
2022-08-22T03:47:31.054Z,14.70
2022-08-22T03:48:31.193Z,14.69
2022-08-22T03:49:31.494Z,14.67
2022-08-22T03:50:31.595Z,14.66
2022-08-22T03:51:31.593Z,14.64
2022-08-22T03:52:31.731Z,14.63
2022-08-22T03:53:31.873Z,14.61
2022-08-22T03:54:32.122Z,14.59
2022-08-22T03:55:32.190Z,14.57
2022-08-22T03:56:32.292Z,14.55
2022-08-22T03:57:32.438Z,14.54
2022-08-22T03:58:32.585Z,14.52
2022-08-22T03:59:32.891Z,14.50
2022-08-22T04:00:32.908Z,14.49
2022-08-22T04:01:33.162Z,14.47
2022-08-22T04:02:42.845Z,14.45
2022-08-22T04:03:34.251Z,14.42
2022-08-22T04:04:33.377Z,14.39
2022-08-22T04:05:33.560Z,14.36
2022-08-22T04:06:33.671Z,14.34
2022-08-22T04:07:33.781Z,14.32
2022-08-22T04:08:33.910Z,14.31
2022-08-22T04:09:34.059Z,14.30
2022-08-22T04:10:34.219Z,14.30
2022-08-22T04:11:34.369Z,14.29
2022-08-22T04:12:34.442Z,14.28
2022-08-22T04:13:34.587Z,14.27
2022-08-22T04:14:37.719Z,14.26
2022-08-22T04:15:35.100Z,14.25
2022-08-22T04:16:34.979Z,14.23
2022-08-22T04:17:35.122Z,14.22
2022-08-22T04:18:35.247Z,14.21
2022-08-22T04:19:35.381Z,14.20
2022-08-22T04:20:35.579Z,14.19
2022-08-22T04:21:35.665Z,14.18
2022-08-22T04:22:35.787Z,14.16
2022-08-22T04:23:35.934Z,14.15
2022-08-22T04:24:36.076Z,14.13
2022-08-22T04:25:36.366Z,14.11
2022-08-22T04:26:36.456Z,14.10
2022-08-22T04:27:36.494Z,14.09
2022-08-22T04:28:36.649Z,14.08
2022-08-22T04:29:36.786Z,14.07
2022-08-22T04:30:37.026Z,14.07
2022-08-22T04:31:37.125Z,14.06
2022-08-22T04:32:37.115Z,14.06
2022-08-22T04:33:37.262Z,14.05
2022-08-22T04:34:37.386Z,14.04
2022-08-22T04:35:37.675Z,14.04
2022-08-22T04:36:37.655Z,14.03
2022-08-22T04:37:37.779Z,14.03
2022-08-22T04:38:37.925Z,14.03
2022-08-22T04:39:38.125Z,14.02
2022-08-22T04:40:38.212Z,14.01
2022-08-22T04:41:38.317Z,14.00
2022-08-22T04:42:38.463Z,13.98
2022-08-22T04:43:38.586Z,13.97
2022-08-22T04:44:38.722Z,13.96
2022-08-22T04:45:39.022Z,13.95
2022-08-22T04:46:39.033Z,13.95
2022-08-22T04:47:39.113Z,13.94
2022-08-22T04:48:39.243Z,13.94
2022-08-22T04:49:39.442Z,13.93
2022-08-22T04:50:43.017Z,13.93
2022-08-22T04:51:39.649Z,13.92
2022-08-22T04:52:39.799Z,13.91
2022-08-22T04:53:39.932Z,13.90
2022-08-22T04:54:40.060Z,13.90
2022-08-22T04:55:40.332Z,13.89
2022-08-22T04:56:40.319Z,13.88
2022-08-22T04:57:40.462Z,13.87
2022-08-22T04:58:40.593Z,13.86
2022-08-22T04:59:40.731Z,13.85
2022-08-22T05:00:40.943Z,13.84
2022-08-22T05:01:41.036Z,13.83
2022-08-22T05:02:41.186Z,13.83
2022-08-22T05:03:44.816Z,13.83
2022-08-22T05:04:41.379Z,13.82
2022-08-22T05:05:41.672Z,13.81
2022-08-22T05:06:41.669Z,13.81
2022-08-22T05:07:41.779Z,13.82
2022-08-22T05:08:41.918Z,13.84
2022-08-22T05:09:42.068Z,13.85
2022-08-22T05:10:42.328Z,13.87
2022-08-22T05:11:42.337Z,13.89
2022-08-22T05:12:42.597Z,13.90
2022-08-22T05:13:42.577Z,13.92
2022-08-22T05:14:42.729Z,13.93
2022-08-22T05:15:42.867Z,13.94
2022-08-22T05:16:42.986Z,13.95
2022-08-22T05:17:43.238Z,13.96
2022-08-22T05:18:43.435Z,13.98
2022-08-22T05:19:43.428Z,13.99
2022-08-22T05:20:43.515Z,14.00
2022-08-22T05:21:43.670Z,14.01
2022-08-22T05:22:43.835Z,14.02
2022-08-22T05:23:43.936Z,14.03
2022-08-22T05:24:44.035Z,14.03
2022-08-22T05:25:44.116Z,14.04
2022-08-22T05:26:44.283Z,14.04
2022-08-22T05:27:44.502Z,14.04
2022-08-22T05:28:44.504Z,14.03
2022-08-22T05:29:44.640Z,14.01
2022-08-22T05:30:44.755Z,13.99
2022-08-22T05:31:44.812Z,13.97
2022-08-22T05:32:44.995Z,13.94
2022-08-22T05:33:45.073Z,13.91
2022-08-22T05:34:45.151Z,13.88
2022-08-22T05:35:49.576Z,13.86
2022-08-22T05:36:46.424Z,13.84
2022-08-22T05:37:45.619Z,13.82
2022-08-22T05:38:45.732Z,13.81
2022-08-22T05:39:45.807Z,13.82
2022-08-22T05:40:45.900Z,13.83
2022-08-22T05:41:46.031Z,13.85
2022-08-22T05:42:46.783Z,13.88
2022-08-22T05:43:46.453Z,13.91
2022-08-22T05:44:46.500Z,13.95
2022-08-22T05:45:46.559Z,14.01
2022-08-22T05:46:46.670Z,14.10
2022-08-22T05:47:46.780Z,14.21
2022-08-22T05:48:46.881Z,14.34
2022-08-22T05:49:47.140Z,14.47
2022-08-22T05:50:50.465Z,14.59
2022-08-22T05:51:47.269Z,14.70
2022-08-22T05:52:47.379Z,14.78
2022-08-22T05:53:47.450Z,14.85
2022-08-22T05:54:47.629Z,14.91
2022-08-22T05:55:47.678Z,14.96
2022-08-22T05:56:47.789Z,15.01
2022-08-22T05:57:47.871Z,15.05
2022-08-22T05:58:48.036Z,15.08
2022-08-22T05:59:48.267Z,15.10
2022-08-22T06:00:48.369Z,15.11
2022-08-22T06:01:48.405Z,15.13
2022-08-22T06:02:48.558Z,15.15
2022-08-22T06:03:48.596Z,15.18
2022-08-22T06:04:48.734Z,15.23
2022-08-22T06:05:48.996Z,15.31
2022-08-22T06:06:48.985Z,15.44
2022-08-22T06:07:49.136Z,15.59
2022-08-22T06:08:49.227Z,15.75
2022-08-22T06:09:49.376Z,15.92
2022-08-22T06:10:49.626Z,16.10
2022-08-22T06:11:52.041Z,16.30
2022-08-22T06:12:49.732Z,16.51
2022-08-22T06:13:49.836Z,16.69
2022-08-22T06:14:49.945Z,16.86
2022-08-22T06:15:50.164Z,17.04
2022-08-22T06:16:50.140Z,17.23
2022-08-22T06:17:50.271Z,17.42
2022-08-22T06:18:50.357Z,17.61
2022-08-22T06:19:50.502Z,17.77
2022-08-22T06:20:50.737Z,17.91
2022-08-22T06:21:50.793Z,18.03
2022-08-22T06:22:50.876Z,18.16
2022-08-22T06:23:51.024Z,18.25
2022-08-22T06:24:51.104Z,18.33
2022-08-22T06:25:51.387Z,18.41
2022-08-22T06:26:51.395Z,18.49
2022-08-22T06:27:51.484Z,18.56
2022-08-22T06:28:55.630Z,18.60
2022-08-22T06:29:51.775Z,18.61
2022-08-22T06:30:52.043Z,18.61
2022-08-22T06:31:52.021Z,18.60
2022-08-22T06:32:59.909Z,18.60
2022-08-22T06:33:53.294Z,18.60
2022-08-22T06:34:52.412Z,18.60
2022-08-22T06:35:52.665Z,18.55
2022-08-22T06:36:52.609Z,18.49
2022-08-22T06:37:52.791Z,18.48
2022-08-22T06:38:52.849Z,18.47
2022-08-22T06:39:53.017Z,18.43
2022-08-22T06:40:53.169Z,18.35
2022-08-22T06:41:53.312Z,18.27
2022-08-22T06:42:53.302Z,18.20
2022-08-22T06:43:53.452Z,18.12
2022-08-22T06:44:53.605Z,18.08
2022-08-22T06:45:53.764Z,18.06
2022-08-22T06:46:54.018Z,18.06
2022-08-22T06:47:54.549Z,18.07
2022-08-22T06:48:54.091Z,18.06
2022-08-22T06:49:54.181Z,18.05
2022-08-22T06:50:54.320Z,18.06
2022-08-22T06:51:54.691Z,18.07
2022-08-22T06:52:54.581Z,18.10
2022-08-22T06:53:54.692Z,18.13
2022-08-22T06:54:54.843Z,18.20
2022-08-22T06:55:54.941Z,18.29
2022-08-22T06:56:55.221Z,18.40
2022-08-22T06:57:55.327Z,18.51
2022-08-22T06:58:55.323Z,18.63
2022-08-22T06:59:55.430Z,18.75
2022-08-22T07:01:05.670Z,18.87
2022-08-22T07:01:56.744Z,18.97
2022-08-22T07:02:55.839Z,19.06
2022-08-22T07:03:55.940Z,19.15
2022-08-22T07:04:56.099Z,19.23
2022-08-22T07:05:56.254Z,19.30
2022-08-22T07:06:56.358Z,19.35
2022-08-22T07:07:56.509Z,19.38
2022-08-22T07:08:56.564Z,19.40
2022-08-22T07:09:56.689Z,19.41
2022-08-22T07:10:56.791Z,19.41
2022-08-22T07:11:56.899Z,19.40
2022-08-22T07:12:57.067Z,19.39
2022-08-22T07:13:57.200Z,19.38
2022-08-22T07:14:57.237Z,19.37
2022-08-22T07:15:57.348Z,19.38
2022-08-22T07:16:57.458Z,19.38
2022-08-22T07:17:57.823Z,19.38
2022-08-22T07:18:57.728Z,19.38
2022-08-22T07:19:57.858Z,19.39
2022-08-22T07:20:57.988Z,19.39
2022-08-22T07:21:58.117Z,19.38
2022-08-22T07:22:58.337Z,19.38
2022-08-22T07:23:58.394Z,19.39
2022-08-22T07:24:58.417Z,19.41
2022-08-22T07:25:58.565Z,19.43
2022-08-22T07:26:58.727Z,19.45
2022-08-22T07:27:59.003Z,19.47
2022-08-22T07:28:58.948Z,19.49
2022-08-22T07:29:59.029Z,19.50
2022-08-22T07:30:59.341Z,19.50
2022-08-22T07:31:59.286Z,19.50
2022-08-22T07:33:20.975Z,19.51
2022-08-22T07:34:00.549Z,19.52
2022-08-22T07:34:59.639Z,19.54
2022-08-22T07:35:59.846Z,19.56
2022-08-22T07:36:59.950Z,19.59
2022-08-22T07:38:00.337Z,19.63
2022-08-22T07:39:00.125Z,19.66
2022-08-22T07:40:00.333Z,19.71
2022-08-22T07:41:00.436Z,19.75
2022-08-22T07:42:00.485Z,19.80
2022-08-22T07:43:00.574Z,19.83
2022-08-22T07:44:00.725Z,19.87
2022-08-22T07:45:00.866Z,19.89
2022-08-22T07:46:01.113Z,19.92
2022-08-22T07:47:01.103Z,19.95
2022-08-22T07:48:01.436Z,19.97
2022-08-22T07:49:09.824Z,19.99
2022-08-22T07:50:02.559Z,20.00
2022-08-22T07:51:01.822Z,20.00
2022-08-22T07:52:01.784Z,20.01
2022-08-22T07:53:01.935Z,20.01
2022-08-22T07:54:02.047Z,20.01
2022-08-22T07:55:02.153Z,20.02
2022-08-22T07:56:02.294Z,20.03
2022-08-22T07:57:02.394Z,20.03
2022-08-22T07:58:04.020Z,20.01
2022-08-22T07:59:04.823Z,19.99
2022-08-22T08:00:03.723Z,19.96
2022-08-22T08:01:02.929Z,19.94
2022-08-22T08:02:03.002Z,19.94
2022-08-22T08:03:03.171Z,19.93
2022-08-22T08:04:03.292Z,19.93
2022-08-22T08:05:03.335Z,19.93
2022-08-22T08:06:03.451Z,19.93
2022-08-22T08:07:03.583Z,19.92
2022-08-22T08:08:03.720Z,19.92
2022-08-22T08:09:03.832Z,19.91
2022-08-22T08:10:03.950Z,19.90
2022-08-22T08:11:04.052Z,19.91
2022-08-22T08:12:04.177Z,19.90
2022-08-22T08:13:04.375Z,19.89
2022-08-22T08:14:04.381Z,19.89
2022-08-22T08:15:04.505Z,19.91
2022-08-22T08:16:04.592Z,19.93
2022-08-22T08:17:04.758Z,19.96
2022-08-22T08:18:04.911Z,19.98
2022-08-22T08:19:05.032Z,20.01
2022-08-22T08:20:05.086Z,20.03
2022-08-22T08:21:05.191Z,20.05
2022-08-22T08:22:05.330Z,20.09
2022-08-22T08:23:05.431Z,20.12
2022-08-22T08:24:05.649Z,20.15
2022-08-22T08:25:05.740Z,20.17
2022-08-22T08:26:05.799Z,20.19
2022-08-22T08:27:05.892Z,20.20
2022-08-22T08:28:05.990Z,20.20
2022-08-22T08:29:06.231Z,20.20
2022-08-22T08:30:06.279Z,20.19
2022-08-22T08:31:06.400Z,20.19
2022-08-22T08:32:06.520Z,20.20
2022-08-22T08:33:24.278Z,20.22
2022-08-22T08:34:07.850Z,20.24
2022-08-22T08:35:06.861Z,20.25
2022-08-22T08:36:06.960Z,20.24
2022-08-22T08:37:07.059Z,20.23
2022-08-22T08:38:07.163Z,20.22
2022-08-22T08:39:07.469Z,20.19
2022-08-22T08:40:07.473Z,20.17
2022-08-22T08:41:07.578Z,20.17
2022-08-22T08:42:07.676Z,20.22
2022-08-22T08:43:10.760Z,20.26
2022-08-22T08:44:07.938Z,20.29
2022-08-22T08:45:07.967Z,20.35
2022-08-22T08:46:08.117Z,20.43
2022-08-22T08:47:08.227Z,20.52
2022-08-22T08:48:08.317Z,20.61
2022-08-22T08:49:08.707Z,20.68
2022-08-22T08:50:09.576Z,20.74
2022-08-22T08:51:09.267Z,20.80
2022-08-22T08:52:08.839Z,20.87
2022-08-22T08:53:08.958Z,20.95
2022-08-22T08:54:09.218Z,21.02
2022-08-22T08:56:10.839Z,21.16
2022-08-22T08:57:09.467Z,21.21
2022-08-22T08:58:10.395Z,21.25
2022-08-22T08:59:10.211Z,21.26
2022-08-22T09:00:10.075Z,21.24
2022-08-22T09:01:09.995Z,21.21
2022-08-22T09:02:13.865Z,21.20
2022-08-22T09:03:11.207Z,21.24
2022-08-22T09:04:15.319Z,21.29
2022-08-22T09:05:11.534Z,21.34
2022-08-22T09:06:10.615Z,21.39
2022-08-22T09:07:10.675Z,21.44
2022-08-22T09:08:11.885Z,21.51
2022-08-22T09:09:10.903Z,21.58
2022-08-22T09:10:11.064Z,21.66
2022-08-22T09:11:12.071Z,21.73
2022-08-22T09:12:11.215Z,21.75
2022-08-22T09:13:12.745Z,21.81
2022-08-22T09:14:11.455Z,21.92
2022-08-22T09:15:14.352Z,22.02
2022-08-22T09:16:11.655Z,22.11
2022-08-22T09:17:11.802Z,22.21
2022-08-22T09:18:11.960Z,22.32
2022-08-22T09:19:12.026Z,22.43
2022-08-22T09:20:15.420Z,22.51
2022-08-22T09:21:13.293Z,22.51
2022-08-22T09:22:14.352Z,22.45
2022-08-22T09:23:12.565Z,22.41
2022-08-22T09:24:12.663Z,22.41
2022-08-22T09:25:12.992Z,22.47
2022-08-22T09:26:12.997Z,22.58
2022-08-22T09:27:13.051Z,22.70
2022-08-22T09:28:13.669Z,22.83
2022-08-22T09:29:13.293Z,22.94
2022-08-22T09:30:13.713Z,23.04
2022-08-22T09:31:16.820Z,23.13
2022-08-22T09:32:14.694Z,23.18
2022-08-22T09:33:13.832Z,23.22
2022-08-22T09:34:13.952Z,23.27
2022-08-22T09:35:15.223Z,23.31
2022-08-22T09:36:14.372Z,23.29
2022-08-22T09:37:14.439Z,23.20
2022-08-22T09:38:14.484Z,23.07
2022-08-22T09:39:14.594Z,23.00
2022-08-22T09:40:17.600Z,23.00
2022-08-22T09:41:16.001Z,23.03
2022-08-22T09:42:14.990Z,23.08
2022-08-22T09:43:21.282Z,23.11
2022-08-22T09:44:16.243Z,23.10
2022-08-22T09:45:15.382Z,23.09
2022-08-22T09:46:15.764Z,23.14
2022-08-22T09:47:15.611Z,23.23
2022-08-22T09:48:16.731Z,23.34
2022-08-22T09:49:16.446Z,23.43
2022-08-22T09:50:17.170Z,23.49
2022-08-22T09:51:33.155Z,23.54
2022-08-22T09:52:34.110Z,23.59
2022-08-22T09:53:17.342Z,23.64
2022-08-22T09:54:16.472Z,23.72
2022-08-22T09:55:16.907Z,23.82
2022-08-22T09:56:16.704Z,23.90
2022-08-22T09:57:17.012Z,23.97
2022-08-22T09:58:16.960Z,24.05
2022-08-22T09:59:17.051Z,24.10
2022-08-22T10:00:17.160Z,24.14
2022-08-22T10:01:18.392Z,24.17
2022-08-22T10:02:17.420Z,24.17
2022-08-22T10:03:17.521Z,24.20
2022-08-22T10:04:19.304Z,24.24
2022-08-22T10:05:40.379Z,24.25
2022-08-22T10:06:18.951Z,24.26
2022-08-22T10:07:17.983Z,24.31
2022-08-22T10:08:19.959Z,24.32
2022-08-22T10:09:18.221Z,24.27
2022-08-22T10:10:21.504Z,24.22
2022-08-22T10:11:18.470Z,24.20
2022-08-22T10:12:18.738Z,24.23
2022-08-22T10:13:19.724Z,24.28
2022-08-22T10:14:22.366Z,24.30
2022-08-22T10:15:18.969Z,24.28
2022-08-22T10:16:19.047Z,24.25
2022-08-22T10:17:21.738Z,24.25
2022-08-22T10:18:19.360Z,24.28
2022-08-22T10:19:19.389Z,24.30
2022-08-22T10:20:19.570Z,24.30
2022-08-22T10:21:19.630Z,24.34
2022-08-22T10:22:19.908Z,24.45
2022-08-22T10:23:20.961Z,24.60
2022-08-22T10:24:25.513Z,24.72
2022-08-22T10:25:21.160Z,24.80
2022-08-22T10:26:22.613Z,24.90
2022-08-22T10:27:20.418Z,25.02
2022-08-22T10:28:20.678Z,25.12
2022-08-22T10:29:20.639Z,25.19
2022-08-22T10:30:20.758Z,25.26
2022-08-22T10:31:20.887Z,25.34
2022-08-22T10:32:21.008Z,25.43
2022-08-22T10:33:22.992Z,25.52
2022-08-22T10:34:21.250Z,25.57
2022-08-22T10:35:21.389Z,25.54
2022-08-22T10:36:21.519Z,25.50
2022-08-22T10:37:23.777Z,25.49
2022-08-22T10:38:21.817Z,25.45
2022-08-22T10:39:22.285Z,25.42
2022-08-22T10:40:22.137Z,25.47
2022-08-22T10:41:22.516Z,25.53
2022-08-22T10:42:23.280Z,25.56
2022-08-22T10:43:28.955Z,25.58
2022-08-22T10:44:23.698Z,25.55
2022-08-22T10:45:23.897Z,25.50
2022-08-22T10:46:23.804Z,25.43
2022-08-22T10:47:22.937Z,25.33
2022-08-22T10:48:23.038Z,25.18
2022-08-22T10:49:23.207Z,25.04
2022-08-22T10:50:24.388Z,24.92
2022-08-22T10:51:24.433Z,24.86
2022-08-22T10:52:23.518Z,24.86
2022-08-22T10:53:28.407Z,24.82
2022-08-22T10:54:24.732Z,24.81
2022-08-22T10:55:24.614Z,24.88
2022-08-22T10:56:24.045Z,25.04
2022-08-22T10:57:24.105Z,25.21
2022-08-22T10:58:24.197Z,25.32
2022-08-22T10:59:24.347Z,25.42
2022-08-22T11:00:25.616Z,25.54
2022-08-22T11:01:38.447Z,25.66
2022-08-22T11:02:25.767Z,25.61
2022-08-22T11:03:25.042Z,25.43
2022-08-22T11:04:28.208Z,25.31
2022-08-22T11:05:25.136Z,25.25
2022-08-22T11:06:25.487Z,25.24
2022-08-22T11:07:25.368Z,25.28
2022-08-22T11:08:25.557Z,25.30
2022-08-22T11:09:25.624Z,25.30
2022-08-22T11:10:25.750Z,25.28
2022-08-22T11:11:25.927Z,25.25
2022-08-22T11:12:34.523Z,25.24
2022-08-22T11:13:27.096Z,25.28
2022-08-22T11:14:26.218Z,25.35
2022-08-22T11:15:34.702Z,25.44
2022-08-22T11:16:27.647Z,25.48
2022-08-22T11:17:30.292Z,25.52
2022-08-22T11:18:27.736Z,25.56
2022-08-22T11:19:26.896Z,25.58
2022-08-22T11:20:26.986Z,25.61
2022-08-22T11:21:27.087Z,25.68
2022-08-22T11:22:27.354Z,25.84
2022-08-22T11:23:27.385Z,26.09
2022-08-22T11:24:34.598Z,26.37
2022-08-22T11:25:36.231Z,26.63
2022-08-22T11:26:29.298Z,26.81
2022-08-22T11:27:34.510Z,26.91
2022-08-22T11:28:28.981Z,26.92
2022-08-22T11:29:28.445Z,26.82
2022-08-22T11:30:28.236Z,26.66
2022-08-22T11:31:28.368Z,26.55
2022-08-22T11:32:28.514Z,26.38
2022-08-22T11:33:46.762Z,26.14
2022-08-22T11:34:29.666Z,25.95
2022-08-22T11:35:28.838Z,25.85
2022-08-22T11:36:30.959Z,25.81
2022-08-22T11:37:42.701Z,25.86
2022-08-22T11:38:32.730Z,25.98
2022-08-22T11:39:29.316Z,26.09
2022-08-22T11:40:29.593Z,26.16
2022-08-22T11:41:29.524Z,26.19
2022-08-22T11:42:29.804Z,26.22
2022-08-22T11:43:32.604Z,26.27
2022-08-22T11:44:29.944Z,26.33
2022-08-22T11:45:30.084Z,26.42
2022-08-22T11:46:30.185Z,26.54
2022-08-22T11:47:30.405Z,26.66
2022-08-22T11:48:30.464Z,26.75
2022-08-22T11:49:32.652Z,26.79
2022-08-22T11:50:30.664Z,26.81
2022-08-22T11:51:34.233Z,26.84
2022-08-22T11:52:31.014Z,26.85
2022-08-22T11:53:31.225Z,26.89
2022-08-22T11:54:31.614Z,27.00
2022-08-22T11:55:33.234Z,27.15
2022-08-22T11:56:31.441Z,27.27
2022-08-22T11:57:31.708Z,27.30
2022-08-22T11:58:31.687Z,27.27
2022-08-22T11:59:31.789Z,27.26
2022-08-22T12:00:31.899Z,27.19
2022-08-22T12:01:34.398Z,27.01
2022-08-22T12:02:32.193Z,26.80
2022-08-22T12:03:32.242Z,26.61
2022-08-22T12:04:32.332Z,26.50
2022-08-22T12:05:32.434Z,26.53
2022-08-22T12:06:32.633Z,26.66
2022-08-22T12:07:32.694Z,26.83
2022-08-22T12:08:32.811Z,27.02
2022-08-22T12:09:33.715Z,27.20
2022-08-22T12:10:33.103Z,27.36
2022-08-22T12:11:33.333Z,27.51
2022-08-22T12:12:33.412Z,27.67
2022-08-22T12:13:34.848Z,27.82
2022-08-22T12:14:33.574Z,27.93
2022-08-22T12:15:33.703Z,27.97
2022-08-22T12:16:33.972Z,27.95
2022-08-22T12:17:55.949Z,27.88
2022-08-22T12:18:35.102Z,27.80
2022-08-22T12:19:34.194Z,27.74
2022-08-22T12:20:34.312Z,27.73
2022-08-22T12:21:38.394Z,27.70
2022-08-22T12:22:34.626Z,27.66
2022-08-22T12:23:48.471Z,27.63
2022-08-22T12:24:35.762Z,27.56
2022-08-22T12:25:34.931Z,27.48
2022-08-22T12:26:35.046Z,27.42
2022-08-22T12:27:35.232Z,27.43
2022-08-22T12:28:35.382Z,27.48
2022-08-22T12:29:40.077Z,27.55
2022-08-22T12:30:36.484Z,27.61
2022-08-22T12:31:35.611Z,27.68
2022-08-22T12:32:36.040Z,27.76
2022-08-22T12:33:35.873Z,27.80
2022-08-22T12:34:36.006Z,27.84
2022-08-22T12:35:37.697Z,27.92
2022-08-22T12:36:36.252Z,27.98
2022-08-22T12:37:52.339Z,28.04
2022-08-22T12:38:38.115Z,28.07
2022-08-22T12:39:36.619Z,28.08
2022-08-22T12:40:36.811Z,28.00
2022-08-22T12:41:36.821Z,27.83
2022-08-22T12:42:37.021Z,27.69
2022-08-22T12:43:42.408Z,27.56
2022-08-22T12:44:38.191Z,27.45
2022-08-22T12:45:37.458Z,27.35
2022-08-22T12:46:37.483Z,27.27
2022-08-22T12:47:38.600Z,27.22
2022-08-22T12:48:37.850Z,27.19
2022-08-22T12:49:37.810Z,27.19
2022-08-22T12:50:37.941Z,27.23
2022-08-22T12:51:38.031Z,27.27
2022-08-22T12:52:38.162Z,27.28